Westhope, North Dakota
Current Conditions -  °F | °C
As of 10:58 PM on Friday 28 Nov 2014 (Local Time) from KMIB Reporting Station
Few Clouds Few Clouds  
Wind Chill: -3°   Ceiling: Unl
Heat Index:   Visibility: 10mi
Dew Point:   Wind: 8mph
Humidity: 90%   Direction: 120°ESE
Pressure: 29.43"   Gusts: NA
Location:  48.91°N, 101.02°W
Report Text: KMIB 290458Z AUTO 12007KT 10SM FEW110 M13/M14 A2943 RMK AO2 VIS 3/4 RWY29 SLP008 T11271140
Loading
Personal Weather Stations






























Interactive Weather Map New forecast layout! Learn more

10-Day Weather Forecast

Advertisements
Track Severe Weather on mobile